Time;durP1;ratioP1;P1;durP2;ratioP2;P2;SDS_P1;SDS_P2;PMS_P1;PMS_P2;Temp;Humidity;BMP_temperature;BMP_pressure;BME280_temperature;BME280_humidity;BME280_pressure;Samples;Min_cycle;Max_cycle;Signal;HPM_P1;HPM_P2
2024/02/10 00:02:10;;;;;;;;;2.00;2.00;;;;;-147.14;100.00;58812.66;5039547;28;46247;-51
2024/02/10 00:04:37;;;;;;;;;0.67;0.67;;;;;-147.14;100.00;58812.66;5052998;28;45499;-53
2024/02/10 00:07:03;;;;;;;;;2.67;2.67;;;;;-147.14;100.00;58812.66;5047448;28;45609;-54
2024/02/10 00:09:28;;;;;;;;;2.00;1.00;;;;;-147.14;100.00;58812.66;5049918;28;45613;-52
2024/02/10 00:11:53;;;;;;;;;3.00;1.67;;;;;-147.14;100.00;58812.66;5044937;28;74413;-54
2024/02/10 00:14:21;;;;;;;;;1.33;1.33;;;;;-147.14;100.00;58812.66;5055400;28;68949;-54
2024/02/10 00:16:46;;;;;;;;;2.00;2.00;;;;;-147.14;100.00;58812.66;5055011;28;45409;-55
2024/02/10 00:19:11;;;;;;;;;1.33;1.33;;;;;-147.14;100.00;58812.66;5044507;28;61776;-52
2024/02/10 00:21:37;;;;;;;;;2.67;1.67;;;;;-147.14;100.00;58812.66;5049807;28;68347;-53
2024/02/10 00:24:04;;;;;;;;;2.00;2.00;;;;;-147.14;100.00;58812.66;5045560;28;45486;-53
2024/02/10 00:26:30;;;;;;;;;5.33;2.33;;;;;-147.14;100.00;58812.66;5046596;28;45553;-51
2024/02/10 00:28:56;;;;;;;;;2.00;2.00;;;;;-147.14;100.00;58812.66;5048154;28;45537;-54
2024/02/10 00:31:24;;;;;;;;;4.00;4.00;;;;;-147.14;100.00;58812.66;5050947;28;46146;-53
2024/02/10 00:33:50;;;;;;;;;3.00;1.67;;;;;-147.14;100.00;58812.66;5040588;28;45536;-54
2024/02/10 00:36:16;;;;;;;;;3.00;2.00;;;;;-147.14;100.00;58812.66;5058445;28;45371;-53
2024/02/10 00:38:42;;;;;;;;;1.67;1.67;;;;;-147.14;100.00;58812.66;5047336;28;45721;-54
2024/02/10 00:41:09;;;;;;;;;4.33;2.00;;;;;-147.14;100.00;58812.66;5042725;28;46267;-53
2024/02/10 00:43:38;;;;;;;;;2.33;2.00;;;;;-147.14;100.00;58812.66;5040553;28;45501;-54
2024/02/10 00:46:07;;;;;;;;;3.00;3.00;;;;;-147.14;100.00;58812.66;5045114;28;45738;-53
2024/02/10 00:48:33;;;;;;;;;3.00;3.00;;;;;-147.14;100.00;58812.66;5043545;28;45545;-53
2024/02/10 00:50:59;;;;;;;;;3.00;3.00;;;;;-147.14;100.00;58812.66;5052640;28;46286;-52
2024/02/10 00:53:25;;;;;;;;;2.00;2.00;;;;;-147.14;100.00;58812.66;5035875;28;45478;-54
2024/02/10 00:55:50;;;;;;;;;3.00;3.00;;;;;-147.14;100.00;58812.66;5044597;28;50500;-52
2024/02/10 00:58:15;;;;;;;;;3.00;3.00;;;;;-147.14;100.00;58812.66;5051882;28;45280;-52
2024/02/10 01:00:42;;;;;;;;;4.00;3.00;;;;;-147.14;100.00;58812.66;5046236;28;53462;-54
2024/02/10 01:03:08;;;;;;;;;5.00;2.00;;;;;-147.14;100.00;58812.66;5043607;28;45309;-53
2024/02/10 01:05:34;;;;;;;;;5.67;3.67;;;;;-147.14;100.00;58812.66;5039455;28;45729;-53
2024/02/10 01:08:00;;;;;;;;;3.67;3.67;;;;;-147.14;100.00;58812.66;5043086;28;45701;-53
2024/02/10 01:10:25;;;;;;;;;4.00;4.00;;;;;-147.14;100.00;58812.66;5044579;28;73369;-53
2024/02/10 01:12:50;;;;;;;;;4.00;4.00;;;;;-147.14;100.00;58812.66;5042234;28;45475;-51
2024/02/10 01:15:16;;;;;;;;;5.00;5.00;;;;;-147.14;100.00;58812.66;5044589;28;51660;-51
2024/02/10 01:17:46;;;;;;;;;6.00;5.33;;;;;-147.14;100.00;58812.66;5046078;28;45532;-52
2024/02/10 01:20:12;;;;;;;;;4.33;4.33;;;;;-147.14;100.00;58812.66;5038885;28;45787;-52
2024/02/10 01:22:41;;;;;;;;;4.33;4.00;;;;;-147.14;100.00;58812.66;5048431;28;45522;-50
2024/02/10 01:25:07;;;;;;;;;3.67;3.67;;;;;-147.14;100.00;58812.66;5047058;28;45446;-51
2024/02/10 01:27:32;;;;;;;;;5.67;5.67;;;;;-147.14;100.00;58812.66;5048035;28;45462;-53
2024/02/10 01:30:01;;;;;;;;;6.33;5.33;;;;;-147.14;100.00;58812.66;5042641;28;77339;-53
2024/02/10 01:32:26;;;;;;;;;5.00;5.00;;;;;-147.14;100.00;58812.66;5043409;28;45376;-53
2024/02/10 01:34:53;;;;;;;;;5.67;5.00;;;;;-147.14;100.00;58812.66;5053750;28;45348;-51
2024/02/10 01:37:19;;;;;;;;;4.33;3.00;;;;;-147.14;100.00;58812.66;5039062;28;45359;-53
2024/02/10 01:39:45;;;;;;;;;6.67;6.33;;;;;-147.14;100.00;58812.66;5023930;28;46341;-53
2024/02/10 01:42:15;;;;;;;;;5.00;5.00;;;;;-147.14;100.00;58812.66;5046538;28;45433;-54
2024/02/10 01:44:43;;;;;;;;;6.33;6.33;;;;;-147.14;100.00;58812.66;5042165;28;45621;-56
2024/02/10 01:47:10;;;;;;;;;9.00;6.67;;;;;-147.14;100.00;58812.66;5047299;28;45406;-52
2024/02/10 01:49:37;;;;;;;;;6.33;6.33;;;;;-147.14;100.00;58812.66;5023392;28;46219;-53
2024/02/10 01:52:06;;;;;;;;;8.33;6.00;;;;;-147.14;100.00;58812.66;5046236;28;45450;-54
2024/02/10 01:54:31;;;;;;;;;6.00;6.00;;;;;-147.14;100.00;58812.66;5044240;28;45516;-53
2024/02/10 01:56:57;;;;;;;;;7.67;5.00;;;;;-147.14;100.00;58812.66;5044128;28;70674;-54
2024/02/10 01:59:22;;;;;;;;;6.33;5.00;;;;;-147.14;100.00;58812.66;5041549;28;45672;-53
2024/02/10 02:01:48;;;;;;;;;5.67;5.00;;;;;-147.14;100.00;58812.66;5051404;28;45441;-52
2024/02/10 02:04:15;;;;;;;;;5.33;5.33;;;;;-147.14;100.00;58812.66;5044120;28;45339;-53
2024/02/10 02:06:42;;;;;;;;;5.00;5.00;;;;;-147.14;100.00;58812.66;5040033;28;45404;-53
2024/02/10 02:09:08;;;;;;;;;4.33;4.33;;;;;-147.14;100.00;58812.66;5024768;28;45585;-53
2024/02/10 02:11:44;;;;;;;;;6.67;5.00;;;;;-147.14;100.00;58812.66;5033789;28;45564;-54
2024/02/10 02:14:10;;;;;;;;;4.33;4.00;;;;;-147.14;100.00;58812.66;5039342;28;45473;-54
2024/02/10 02:16:37;;;;;;;;;5.00;5.00;;;;;-147.14;100.00;58812.66;5040019;28;46708;-56
2024/02/10 02:19:02;;;;;;;;;5.67;5.67;;;;;-147.14;100.00;58812.66;5044218;28;46169;-54
2024/02/10 02:21:30;;;;;;;;;6.00;6.00;;;;;-147.14;100.00;58812.66;5042711;28;45476;-54
2024/02/10 02:23:55;;;;;;;;;6.00;6.00;;;;;-147.14;100.00;58812.66;5039518;28;45524;-52
2024/02/10 02:26:20;;;;;;;;;5.67;5.00;;;;;-147.14;100.00;58812.66;5046161;28;45494;-53
2024/02/10 02:28:46;;;;;;;;;8.67;7.00;;;;;-147.14;100.00;58812.66;5044545;28;75385;-54
2024/02/10 02:31:13;;;;;;;;;4.00;4.00;;;;;-147.14;100.00;58812.66;5047455;28;73352;-54
2024/02/10 02:33:38;;;;;;;;;7.00;6.00;;;;;-147.14;100.00;58812.66;5044619;28;45483;-54
2024/02/10 02:36:04;;;;;;;;;4.33;4.33;;;;;-147.14;100.00;58812.66;5035941;28;70276;-53
2024/02/10 02:38:29;;;;;;;;;4.67;4.67;;;;;-147.14;100.00;58812.66;5030252;28;46663;-54
2024/02/10 02:40:55;;;;;;;;;9.00;5.00;;;;;-147.14;100.00;58812.66;5052543;28;59536;-53
2024/02/10 02:43:20;;;;;;;;;4.67;4.33;;;;;-147.14;100.00;58812.66;5045770;28;45428;-54
2024/02/10 02:45:45;;;;;;;;;9.00;7.33;;;;;-147.14;100.00;58812.66;5048193;28;47858;-54
2024/02/10 02:48:11;;;;;;;;;5.67;5.67;;;;;-147.14;100.00;58812.66;5044497;28;45289;-54
2024/02/10 02:50:38;;;;;;;;;6.67;5.00;;;;;-147.14;100.00;58812.66;5049139;28;45653;-54
2024/02/10 02:53:03;;;;;;;;;7.00;5.33;;;;;-147.14;100.00;58812.66;5056672;28;45453;-54
2024/02/10 02:55:29;;;;;;;;;7.00;5.00;;;;;-147.14;100.00;58812.66;5054186;28;45360;-52
2024/02/10 02:58:01;;;;;;;;;7.00;5.00;;;;;-147.14;100.00;58812.66;5023758;28;57170;-53
2024/02/10 03:00:29;;;;;;;;;5.33;5.00;;;;;-147.14;100.00;58812.66;5048798;28;45543;-53
2024/02/10 03:02:56;;;;;;;;;6.00;5.00;;;;;-147.14;100.00;58812.66;5047261;28;45313;-54
2024/02/10 03:05:22;;;;;;;;;8.33;7.33;;;;;-147.14;100.00;58812.66;5041460;28;45408;-54
2024/02/10 03:07:47;;;;;;;;;6.33;6.00;;;;;-147.14;100.00;58812.66;5034950;28;73294;-53
2024/02/10 03:10:13;;;;;;;;;6.33;6.00;;;;;-147.14;100.00;58812.66;5041587;28;72698;-53
2024/02/10 03:12:41;;;;;;;;;7.67;6.00;;;;;-147.14;100.00;58812.66;5044490;28;45455;-54
2024/02/10 03:15:07;;;;;;;;;7.67;7.33;;;;;-147.14;100.00;58812.66;5038454;28;45520;-53
2024/02/10 03:17:32;;;;;;;;;7.00;6.00;;;;;-147.14;100.00;58812.66;5052425;28;45400;-53
2024/02/10 03:19:58;;;;;;;;;6.00;6.00;;;;;-147.14;100.00;58812.66;5051227;28;62229;-55
2024/02/10 03:22:23;;;;;;;;;7.00;6.00;;;;;-147.14;100.00;58812.66;5041131;28;45379;-55
2024/02/10 03:24:49;;;;;;;;;6.33;5.67;;;;;-147.14;100.00;58812.66;5048737;28;68696;-54
2024/02/10 03:27:17;;;;;;;;;9.00;5.67;;;;;-147.14;100.00;58812.66;5049447;28;46034;-54
2024/02/10 03:29:45;;;;;;;;;8.00;6.33;;;;;-147.14;100.00;58812.66;5052495;28;45641;-54
2024/02/10 03:32:11;;;;;;;;;8.67;6.33;;;;;-147.14;100.00;58812.66;5043031;28;45337;-54
2024/02/10 03:34:36;;;;;;;;;7.00;6.67;;;;;-147.14;100.00;58812.66;5051473;28;45619;-53
2024/02/10 03:37:01;;;;;;;;;6.67;6.33;;;;;-147.14;100.00;58812.66;5041886;28;62274;-54
2024/02/10 03:39:27;;;;;;;;;8.00;8.00;;;;;-147.14;100.00;58812.66;5038025;28;45288;-54
2024/02/10 03:41:52;;;;;;;;;7.67;5.00;;;;;-147.14;100.00;58812.66;5047839;28;67786;-54
2024/02/10 03:44:22;;;;;;;;;8.00;6.33;;;;;-147.14;100.00;58812.66;5048989;28;69707;-54
2024/02/10 03:46:49;;;;;;;;;9.33;8.00;;;;;-147.14;100.00;58812.66;5040763;28;45403;-54
2024/02/10 03:49:14;;;;;;;;;10.00;8.00;;;;;-147.14;100.00;58812.66;5040644;28;45466;-53
2024/02/10 03:51:39;;;;;;;;;8.67;7.00;;;;;-147.14;100.00;58812.66;5041124;28;68552;-54
2024/02/10 03:54:08;;;;;;;;;8.00;5.33;;;;;-147.14;100.00;58812.66;5037663;28;69388;-54
2024/02/10 03:56:34;;;;;;;;;5.67;5.33;;;;;-147.14;100.00;58812.66;5039635;28;46372;-53
2024/02/10 03:59:02;;;;;;;;;7.00;5.67;;;;;-147.14;100.00;58812.66;5040765;28;61042;-54
2024/02/10 04:01:27;;;;;;;;;10.00;8.00;;;;;-147.14;100.00;58812.66;5048284;28;45502;-52
2024/02/10 04:03:55;;;;;;;;;9.00;7.67;;;;;-147.14;100.00;58812.66;5046269;28;45368;-54
2024/02/10 04:06:23;;;;;;;;;12.33;7.00;;;;;-147.14;100.00;58812.66;5026616;28;46315;-51
2024/02/10 04:08:49;;;;;;;;;9.67;9.67;;;;;-147.14;100.00;58812.66;5050042;28;45276;-54
2024/02/10 04:11:16;;;;;;;;;8.00;6.00;;;;;-147.14;100.00;58812.66;5045280;28;67940;-53
2024/02/10 04:13:42;;;;;;;;;7.33;7.33;;;;;-147.14;100.00;58812.66;5044037;28;47008;-54
2024/02/10 04:16:12;;;;;;;;;6.00;6.00;;;;;-147.14;100.00;58812.66;5045392;28;46218;-53
2024/02/10 04:18:41;;;;;;;;;9.00;7.33;;;;;-147.14;100.00;58812.66;5049594;28;45487;-53
2024/02/10 04:21:06;;;;;;;;;8.00;8.00;;;;;-147.14;100.00;58812.66;5045520;28;45479;-53
2024/02/10 04:23:33;;;;;;;;;7.67;5.33;;;;;-147.14;100.00;58812.66;5041248;28;64996;-53
2024/02/10 04:25:59;;;;;;;;;6.67;6.67;;;;;-147.14;100.00;58812.66;5047812;28;46162;-52
2024/02/10 04:28:24;;;;;;;;;6.00;6.00;;;;;-147.14;100.00;58812.66;5048737;28;45482;-54
2024/02/10 04:30:53;;;;;;;;;9.00;6.67;;;;;-147.14;100.00;58812.66;5044693;28;45548;-54
2024/02/10 04:33:21;;;;;;;;;6.67;6.33;;;;;-147.14;100.00;58812.66;5054336;28;45650;-55
2024/02/10 04:35:47;;;;;;;;;7.67;6.67;;;;;-147.14;100.00;58812.66;5043281;28;46318;-54
2024/02/10 04:38:13;;;;;;;;;10.33;10.33;;;;;-147.14;100.00;58812.66;5053255;28;45300;-52
2024/02/10 04:40:38;;;;;;;;;8.67;8.00;;;;;-147.14;100.00;58812.66;5039568;28;45410;-54
2024/02/10 04:43:04;;;;;;;;;9.33;6.33;;;;;-147.14;100.00;58812.66;5044975;28;69563;-54
2024/02/10 04:45:31;;;;;;;;;9.00;7.00;;;;;-147.14;100.00;58812.66;5052958;28;47387;-53
2024/02/10 04:47:57;;;;;;;;;9.33;7.67;;;;;-147.14;100.00;58812.66;5049289;28;45542;-53
2024/02/10 04:50:23;;;;;;;;;10.00;8.00;;;;;-147.14;100.00;58812.66;5048547;28;45483;-54
2024/02/10 04:52:48;;;;;;;;;9.00;8.33;;;;;-147.14;100.00;58812.66;5027050;28;45606;-54
2024/02/10 04:55:15;;;;;;;;;11.00;8.00;;;;;-147.14;100.00;58812.66;5043896;28;48255;-52
2024/02/10 04:57:43;;;;;;;;;10.00;8.33;;;;;-147.14;100.00;58812.66;5039012;28;45564;-54
2024/02/10 05:00:12;;;;;;;;;9.00;9.00;;;;;-147.14;100.00;58812.66;5040248;28;45443;-53
2024/02/10 05:02:37;;;;;;;;;6.33;6.33;;;;;-147.14;100.00;58812.66;5053713;28;45484;-53
2024/02/10 05:05:06;;;;;;;;;11.33;11.33;;;;;-147.14;100.00;58812.66;5033688;28;46265;-53
2024/02/10 05:07:32;;;;;;;;;8.00;6.33;;;;;-147.14;100.00;58812.66;5037347;28;45471;-52
2024/02/10 05:10:00;;;;;;;;;10.33;9.00;;;;;-147.14;100.00;58812.66;5045790;28;45407;-53
2024/02/10 05:12:29;;;;;;;;;11.00;9.00;;;;;-147.14;100.00;58812.66;5047212;28;45418;-52
2024/02/10 05:14:54;;;;;;;;;12.00;9.67;;;;;-147.14;100.00;58812.66;5045972;28;48736;-54
2024/02/10 05:17:20;;;;;;;;;9.00;9.00;;;;;-147.14;100.00;58812.66;5043858;28;45442;-52
2024/02/10 05:19:45;;;;;;;;;13.00;8.33;;;;;-147.14;100.00;58812.66;5042852;28;45515;-53
2024/02/10 05:22:13;;;;;;;;;8.00;8.00;;;;;-147.14;100.00;58812.66;5027540;28;53164;-51
2024/02/10 05:24:46;;;;;;;;;13.67;10.00;;;;;-147.14;100.00;58812.66;5041596;28;46191;-52
2024/02/10 05:27:12;;;;;;;;;9.00;9.00;;;;;-147.14;100.00;58812.66;5039406;28;45548;-54
2024/02/10 05:29:38;;;;;;;;;11.67;9.00;;;;;-147.14;100.00;58812.66;5041813;28;45729;-54
2024/02/10 05:32:04;;;;;;;;;8.00;7.00;;;;;-147.14;100.00;58812.66;5041338;28;69254;-54
2024/02/10 05:34:30;;;;;;;;;14.00;10.67;;;;;-147.14;100.00;58812.66;5030892;28;45672;-54
2024/02/10 05:36:59;;;;;;;;;10.00;10.00;;;;;-147.14;100.00;58812.66;5043330;28;45907;-53
2024/02/10 05:39:25;;;;;;;;;12.00;9.00;;;;;-147.14;100.00;58812.66;5046059;28;45299;-52
2024/02/10 05:41:52;;;;;;;;;10.00;8.00;;;;;-147.14;100.00;58812.66;5053140;28;45321;-50
2024/02/10 05:44:18;;;;;;;;;11.33;9.67;;;;;-147.14;100.00;58812.66;5040283;28;46183;-52
2024/02/10 05:46:44;;;;;;;;;10.33;10.33;;;;;-147.14;100.00;58812.66;5030997;28;45441;-51
2024/02/10 05:49:09;;;;;;;;;9.00;8.00;;;;;-147.14;100.00;58812.66;5040913;28;45308;-54
2024/02/10 05:51:40;;;;;;;;;10.00;8.67;;;;;-147.14;100.00;58812.66;5040087;28;45392;-54
2024/02/10 05:54:06;;;;;;;;;11.33;10.67;;;;;-147.14;100.00;58812.66;5040276;28;46312;-54
2024/02/10 05:56:33;;;;;;;;;13.67;11.33;;;;;-147.14;100.00;58812.66;5048511;28;45395;-53
2024/02/10 05:58:59;;;;;;;;;9.67;9.67;;;;;-147.14;100.00;58812.66;5039427;28;45486;-54
2024/02/10 06:01:24;;;;;;;;;9.00;9.00;;;;;-147.14;100.00;58812.66;5044120;28;45471;-53
2024/02/10 06:03:52;;;;;;;;;13.33;9.33;;;;;-147.14;100.00;58812.66;5041401;28;74581;-53
2024/02/10 06:06:19;;;;;;;;;11.33;9.00;;;;;-147.14;100.00;58812.66;5043332;28;45451;-54
2024/02/10 06:08:45;;;;;;;;;12.00;10.33;;;;;-147.14;100.00;58812.66;5043303;28;45527;-53
2024/02/10 06:11:11;;;;;;;;;11.67;11.00;;;;;-147.14;100.00;58812.66;5041416;28;45503;-53
2024/02/10 06:13:36;;;;;;;;;13.00;11.67;;;;;-147.14;100.00;58812.66;5052666;28;46957;-53
2024/02/10 06:16:05;;;;;;;;;13.33;11.00;;;;;-147.14;100.00;58812.66;5046122;28;45411;-54
2024/02/10 06:18:30;;;;;;;;;11.00;10.67;;;;;-147.14;100.00;58812.66;5051370;28;45594;-53
2024/02/10 06:21:00;;;;;;;;;11.00;10.00;;;;;-147.14;100.00;58812.66;5055326;28;45516;-53
2024/02/10 06:23:25;;;;;;;;;11.33;11.00;;;;;-147.14;100.00;58812.66;5043281;28;46925;-53
2024/02/10 06:25:54;;;;;;;;;8.00;8.00;;;;;-147.14;100.00;58812.66;5045304;28;45542;-51
2024/02/10 06:28:21;;;;;;;;;13.33;11.00;;;;;-147.14;100.00;58812.66;5026065;28;45447;-51
2024/02/10 06:30:49;;;;;;;;;10.00;10.00;;;;;-147.14;100.00;58812.66;5041557;28;45648;-54
2024/02/10 06:33:15;;;;;;;;;9.33;9.33;;;;;-147.14;100.00;58812.66;5046681;28;46221;-52
2024/02/10 06:35:40;;;;;;;;;11.33;10.67;;;;;-147.14;100.00;58812.66;5047624;28;45642;-54
2024/02/10 06:38:06;;;;;;;;;11.33;11.00;;;;;-147.14;100.00;58812.66;5049742;28;69095;-52
2024/02/10 06:40:31;;;;;;;;;8.00;8.00;;;;;-147.14;100.00;58812.66;5045313;28;69469;-51
2024/02/10 06:42:56;;;;;;;;;13.33;11.33;;;;;-147.14;100.00;58812.66;5048847;28;75424;-50
2024/02/10 06:45:24;;;;;;;;;11.00;11.00;;;;;-147.14;100.00;58812.66;5042030;28;72136;-53
2024/02/10 06:47:50;;;;;;;;;13.00;11.33;;;;;-147.14;100.00;58812.66;5054814;28;45866;-53
2024/02/10 06:50:23;;;;;;;;;11.00;11.00;;;;;-147.14;100.00;58812.66;5047097;28;45391;-53
2024/02/10 06:52:49;;;;;;;;;11.00;10.67;;;;;-147.14;100.00;58812.66;5046694;28;47418;-53
2024/02/10 06:55:15;;;;;;;;;12.00;12.00;;;;;-147.14;100.00;58812.66;5051047;28;46618;-54
2024/02/10 06:57:43;;;;;;;;;10.33;8.67;;;;;-147.14;100.00;58812.66;5039033;28;69028;-52
2024/02/10 07:00:14;;;;;;;;;11.00;9.33;;;;;-147.14;100.00;58812.66;5049860;28;45357;-54
2024/02/10 07:02:42;;;;;;;;;7.33;7.33;;;;;-147.14;100.00;58812.66;5049548;28;46183;-54
2024/02/10 07:05:08;;;;;;;;;14.33;10.00;;;;;-147.14;100.00;58812.66;5055328;28;45673;-54
2024/02/10 07:07:34;;;;;;;;;10.00;10.00;;;;;-147.14;100.00;58812.66;5048486;28;45669;-54
2024/02/10 07:09:59;;;;;;;;;18.33;11.00;;;;;-147.14;100.00;58812.66;5046004;28;70128;-54
2024/02/10 07:12:27;;;;;;;;;13.00;10.00;;;;;-147.14;100.00;58812.66;5043050;28;72043;-53
2024/02/10 07:14:54;;;;;;;;;13.67;12.67;;;;;-147.14;100.00;58812.66;5042142;28;45556;-53
2024/02/10 07:17:20;;;;;;;;;11.00;10.00;;;;;-147.14;100.00;58812.66;5040762;28;45496;-52
2024/02/10 07:19:49;;;;;;;;;11.33;11.33;;;;;-147.14;100.00;58812.66;5045155;28;60926;-54
2024/02/10 07:22:16;;;;;;;;;16.67;12.00;;;;;-147.14;100.00;58812.66;5050163;28;47079;-52
2024/02/10 07:24:46;;;;;;;;;21.67;21.00;;;;;-147.14;100.00;58812.66;5049765;28;45492;-54
2024/02/10 07:27:17;;;;;;;;;24.33;22.67;;;;;-147.14;100.00;58812.66;5028868;28;45459;-52
2024/02/10 07:29:45;;;;;;;;;19.00;14.67;;;;;-147.14;100.00;58812.66;5049357;28;45522;-52
2024/02/10 07:32:12;;;;;;;;;13.67;11.33;;;;;-147.14;100.00;58812.66;5051633;28;45409;-53
2024/02/10 07:34:37;;;;;;;;;14.67;13.00;;;;;-147.14;100.00;58812.66;5050677;28;45486;-54
2024/02/10 07:37:04;;;;;;;;;12.33;10.67;;;;;-147.14;100.00;58812.66;5046742;28;45239;-54
2024/02/10 07:39:29;;;;;;;;;11.33;10.67;;;;;-147.14;100.00;58812.66;5046263;28;45550;-54
2024/02/10 07:41:56;;;;;;;;;13.00;10.00;;;;;-147.14;100.00;58812.66;5056985;28;46029;-54
2024/02/10 07:44:21;;;;;;;;;12.00;10.67;;;;;-147.14;100.00;58812.66;5053021;28;45397;-53
2024/02/10 07:46:47;;;;;;;;;16.00;13.67;;;;;-147.14;100.00;58812.66;5043390;28;45525;-54
2024/02/10 07:49:13;;;;;;;;;14.00;14.00;;;;;-147.14;100.00;58812.66;5046008;28;45529;-53
2024/02/10 07:51:39;;;;;;;;;17.67;17.67;;;;;-147.14;100.00;58812.66;5034717;28;46282;-53
2024/02/10 07:54:05;;;;;;;;;12.67;12.67;;;;;-147.14;100.00;58812.66;5039909;28;45737;-54
2024/02/10 07:56:31;;;;;;;;;14.00;13.00;;;;;-147.14;100.00;58812.66;5045509;28;45618;-53
2024/02/10 07:58:58;;;;;;;;;17.33;12.33;;;;;-147.14;100.00;58812.66;5045872;28;45733;-54
2024/02/10 08:01:25;;;;;;;;;14.33;14.00;;;;;-147.14;100.00;58812.66;5052927;28;46351;-54
2024/02/10 08:03:54;;;;;;;;;12.67;11.67;;;;;-147.14;100.00;58812.66;5050730;28;45289;-53
2024/02/10 08:06:26;;;;;;;;;12.00;12.00;;;;;-147.14;100.00;58812.66;5048293;28;45436;-53
2024/02/10 08:09:01;;;;;;;;;13.00;13.00;;;;;-147.14;100.00;58812.66;5041130;28;45427;-53
2024/02/10 08:11:27;;;;;;;;;15.33;13.00;;;;;-147.14;100.00;58812.66;5048504;28;46037;-51
2024/02/10 08:13:53;;;;;;;;;15.67;12.00;;;;;-147.14;100.00;58812.66;5044466;28;45643;-54
2024/02/10 08:16:21;;;;;;;;;14.67;13.00;;;;;-147.14;100.00;58812.66;5045663;28;45522;-52
2024/02/10 08:18:49;;;;;;;;;15.33;13.33;;;;;-147.14;100.00;58812.66;5042736;28;45743;-54
2024/02/10 08:21:17;;;;;;;;;18.33;17.00;;;;;-147.14;100.00;58812.66;5030496;28;45430;-50
2024/02/10 08:23:46;;;;;;;;;17.33;14.00;;;;;-147.14;100.00;58812.66;5043418;28;45439;-54
2024/02/10 08:26:12;;;;;;;;;15.67;13.67;;;;;-147.14;100.00;58812.66;5049162;28;45454;-53
2024/02/10 08:28:39;;;;;;;;;19.33;14.00;;;;;-147.14;100.00;58812.66;5038703;28;45758;-54
2024/02/10 08:31:04;;;;;;;;;20.00;16.33;;;;;-147.14;100.00;58812.66;5049465;28;46318;-53
2024/02/10 08:33:33;;;;;;;;;14.67;12.67;;;;;-147.14;100.00;58812.66;5051637;28;45420;-54
2024/02/10 08:35:59;;;;;;;;;15.00;14.00;;;;;-147.14;100.00;58812.66;5053696;28;45596;-49
2024/02/10 08:38:24;;;;;;;;;19.33;14.00;;;;;-147.14;100.00;58812.66;5046426;28;47164;-51
2024/02/10 08:40:49;;;;;;;;;12.33;12.33;;;;;-147.14;100.00;58812.66;5034968;28;71575;-51
2024/02/10 08:43:17;;;;;;;;;13.00;11.00;;;;;-147.14;100.00;58812.66;5052704;28;71699;-53
2024/02/10 08:45:46;;;;;;;;;12.00;11.33;;;;;-147.14;100.00;58812.66;5046055;28;45366;-53
2024/02/10 08:48:11;;;;;;;;;19.00;13.67;;;;;-147.14;100.00;58812.66;5036836;28;45724;-52
2024/02/10 08:50:40;;;;;;;;;15.00;13.00;;;;;-147.14;100.00;58812.66;5053728;28;47064;-51
2024/02/10 08:53:06;;;;;;;;;12.00;10.00;;;;;-147.14;100.00;58812.66;5049912;28;45450;-49
2024/02/10 08:55:32;;;;;;;;;17.33;14.67;;;;;-147.14;100.00;58812.66;5044356;28;45475;-51
2024/02/10 08:57:59;;;;;;;;;15.00;13.33;;;;;-147.14;100.00;58812.66;5047149;28;71411;-53
2024/02/10 09:00:24;;;;;;;;;14.67;14.67;;;;;-147.14;100.00;58812.66;5041784;28;46290;-52
2024/02/10 09:02:50;;;;;;;;;14.00;13.33;;;;;-147.14;100.00;58812.66;5046593;28;45408;-49
2024/02/10 09:05:16;;;;;;;;;14.67;14.67;;;;;-147.14;100.00;58812.66;5048333;28;45505;-51
2024/02/10 09:07:41;;;;;;;;;15.67;14.00;;;;;-147.14;100.00;58812.66;5044323;28;45498;-53
2024/02/10 09:10:08;;;;;;;;;17.33;16.00;;;;;-147.14;100.00;58812.66;5039990;28;46129;-52
2024/02/10 09:12:33;;;;;;;;;19.00;16.33;;;;;-147.14;100.00;58812.66;5047216;28;45467;-53
2024/02/10 09:14:59;;;;;;;;;17.00;16.00;;;;;-147.14;100.00;58812.66;5051550;28;45531;-51
2024/02/10 09:17:24;;;;;;;;;22.33;18.00;;;;;-147.14;100.00;58812.66;5045149;28;62697;-49
2024/02/10 09:19:49;;;;;;;;;24.00;17.00;;;;;-147.14;100.00;58812.66;5046596;28;70658;-51
2024/02/10 09:22:16;;;;;;;;;18.67;14.67;;;;;-147.14;100.00;58812.66;5054100;28;45457;-51
2024/02/10 09:24:41;;;;;;;;;18.33;14.33;;;;;-147.14;100.00;58812.66;5053119;28;45700;-53
2024/02/10 09:27:10;;;;;;;;;17.33;16.00;;;;;-147.14;100.00;58812.66;5030939;28;45526;-50
2024/02/10 09:29:35;;;;;;;;;16.67;16.00;;;;;-147.14;100.00;58812.66;5016928;28;46888;-49
2024/02/10 09:32:00;;;;;;;;;23.67;18.00;;;;;-147.14;100.00;58812.66;5045331;28;46906;-52
2024/02/10 09:34:27;;;;;;;;;19.67;16.67;;;;;-147.14;100.00;58812.66;5041982;28;66914;-52
2024/02/10 09:36:53;;;;;;;;;18.00;16.33;;;;;-147.14;100.00;58812.66;5049826;28;45427;-52
2024/02/10 09:39:18;;;;;;;;;14.33;12.67;;;;;-147.14;100.00;58812.66;5028639;28;46499;-52
2024/02/10 09:41:44;;;;;;;;;21.33;16.33;;;;;-147.14;100.00;58812.66;5042041;28;45464;-51
2024/02/10 09:44:11;;;;;;;;;20.33;18.33;;;;;-147.14;100.00;58812.66;5038765;28;62068;-52
2024/02/10 09:46:37;;;;;;;;;19.33;19.33;;;;;-147.14;100.00;58812.66;5046757;28;46605;-51
2024/02/10 09:49:06;;;;;;;;;20.00;20.00;;;;;-147.14;100.00;58812.66;5030022;28;47121;-52
2024/02/10 09:51:31;;;;;;;;;18.67;16.67;;;;;-147.14;100.00;58812.66;5044638;28;45572;-51
2024/02/10 09:53:56;;;;;;;;;16.00;16.00;;;;;-147.14;100.00;58812.66;5030113;28;67888;-49
2024/02/10 09:56:22;;;;;;;;;22.67;19.00;;;;;-147.14;100.00;58812.66;5043688;28;70485;-52
2024/02/10 09:58:49;;;;;;;;;17.67;16.00;;;;;-147.14;100.00;58812.66;5019706;28;47246;-50
2024/02/10 10:01:15;;;;;;;;;15.00;11.67;;;;;-147.14;100.00;58812.66;5047090;28;45483;-51
2024/02/10 10:03:40;;;;;;;;;21.33;20.33;;;;;-147.14;100.00;58812.66;5046736;28;45600;-52
2024/02/10 10:06:09;;;;;;;;;18.33;17.00;;;;;-147.14;100.00;58812.66;5017393;28;45519;-53
2024/02/10 10:08:39;;;;;;;;;19.00;17.67;;;;;-147.14;100.00;58812.66;5046135;28;45415;-52
2024/02/10 10:11:08;;;;;;;;;19.00;18.67;;;;;-147.14;100.00;58812.66;5024909;28;46256;-53
2024/02/10 10:13:40;;;;;;;;;20.00;16.33;;;;;-147.14;100.00;58812.66;5028248;28;46646;-52
2024/02/10 10:16:09;;;;;;;;;21.67;19.00;;;;;-147.14;100.00;58812.66;5027717;28;45515;-52
2024/02/10 10:18:35;;;;;;;;;18.00;18.00;;;;;-147.14;100.00;58812.66;5042925;28;45460;-51
2024/02/10 10:21:01;;;;;;;;;22.00;19.67;;;;;-147.14;100.00;58812.66;5014309;28;45581;-52
2024/02/10 10:23:31;;;;;;;;;23.00;22.00;;;;;-147.14;100.00;58812.66;5023021;28;46570;-50
2024/02/10 10:25:56;;;;;;;;;17.00;17.00;;;;;-147.14;100.00;58812.66;5047580;28;45403;-48
2024/02/10 10:28:21;;;;;;;;;16.33;14.33;;;;;-147.14;100.00;58812.66;5043647;28;46577;-48
2024/02/10 10:30:47;;;;;;;;;18.00;18.00;;;;;-147.14;100.00;58812.66;5024614;28;72115;-50
2024/02/10 10:33:15;;;;;;;;;17.67;14.67;;;;;-147.14;100.00;58812.66;5025432;28;45455;-49
2024/02/10 10:35:44;;;;;;;;;14.67;14.67;;;;;-147.14;100.00;58812.66;5025247;28;45635;-49
2024/02/10 10:38:10;;;;;;;;;18.33;18.00;;;;;-147.14;100.00;58812.66;5044582;28;46379;-49
2024/02/10 10:40:36;;;;;;;;;25.00;21.00;;;;;-147.14;100.00;58812.66;5044986;28;45292;-48
2024/02/10 10:43:05;;;;;;;;;16.00;14.33;;;;;-147.14;100.00;58812.66;5042345;28;45911;-47
2024/02/10 10:45:32;;;;;;;;;16.33;15.33;;;;;-147.14;100.00;58812.66;5036541;28;45353;-49
2024/02/10 10:48:01;;;;;;;;;20.33;19.33;;;;;-147.14;100.00;58812.66;5040298;28;46376;-51
2024/02/10 10:50:27;;;;;;;;;18.00;16.67;;;;;-147.14;100.00;58812.66;5044937;28;45461;-49
2024/02/10 10:53:04;;;;;;;;;20.00;17.00;;;;;-147.14;100.00;58812.66;5048297;28;45839;-50
2024/02/10 10:55:31;;;;;;;;;17.67;14.67;;;;;-147.14;100.00;58812.66;5041775;28;45546;-50
2024/02/10 10:57:57;;;;;;;;;14.67;14.67;;;;;-147.14;100.00;58812.66;5023534;28;45567;-49
2024/02/10 11:00:25;;;;;;;;;20.67;19.00;;;;;-147.14;100.00;58812.66;5045541;28;72514;-51